sensor_id;sensor_type;location;lat;lon;timestamp;temperature;humidity
19561;DHT22;9927;47.792;10.616;2023-12-28T04:02:32;6.10;97.90
19561;DHT22;9927;47.792;10.616;2023-12-28T04:04:59;6.50;97.70
19561;DHT22;9927;47.792;10.616;2023-12-28T04:07:27;6.60;96.80
19561;DHT22;9927;47.792;10.616;2023-12-28T04:09:54;7.00;96.20
19561;DHT22;9927;47.792;10.616;2023-12-28T04:12:23;7.10;95.90
19561;DHT22;9927;47.792;10.616;2023-12-28T04:14:50;7.00;96.30
19561;DHT22;9927;47.792;10.616;2023-12-28T04:17:17;6.80;96.90
19561;DHT22;9927;47.792;10.616;2023-12-28T04:19:45;6.70;96.80
19561;DHT22;9927;47.792;10.616;2023-12-28T04:22:12;6.80;96.80
19561;DHT22;9927;47.792;10.616;2023-12-28T04:24:39;6.80;96.40
19561;DHT22;9927;47.792;10.616;2023-12-28T04:27:06;6.80;96.90
19561;DHT22;9927;47.792;10.616;2023-12-28T04:29:35;6.70;96.50
19561;DHT22;9927;47.792;10.616;2023-12-28T04:32:02;6.60;97.20
19561;DHT22;9927;47.792;10.616;2023-12-28T04:34:30;6.60;96.20
19561;DHT22;9927;47.792;10.616;2023-12-28T04:36:57;6.60;95.50
19561;DHT22;9927;47.792;10.616;2023-12-28T04:39:24;6.60;95.50
19561;DHT22;9927;47.792;10.616;2023-12-28T04:41:52;6.70;95.50
19561;DHT22;9927;47.792;10.616;2023-12-28T04:44:20;6.60;94.80
19561;DHT22;9927;47.792;10.616;2023-12-28T04:46:48;6.60;94.70
19561;DHT22;9927;47.792;10.616;2023-12-28T04:49:15;6.80;94.20
19561;DHT22;9927;47.792;10.616;2023-12-28T04:51:43;6.90;93.60
19561;DHT22;9927;47.792;10.616;2023-12-28T04:54:11;7.00;93.60
19561;DHT22;9927;47.792;10.616;2023-12-28T04:56:39;7.10;93.10
19561;DHT22;9927;47.792;10.616;2023-12-28T04:59:06;7.20;93.00
19561;DHT22;9927;47.792;10.616;2023-12-28T05:01:33;7.30;93.00
19561;DHT22;9927;47.792;10.616;2023-12-28T05:04:07;7.40;92.40
19561;DHT22;9927;47.792;10.616;2023-12-28T05:06:34;7.60;92.20
19561;DHT22;9927;47.792;10.616;2023-12-28T05:09:02;7.80;91.60
19561;DHT22;9927;47.792;10.616;2023-12-28T05:11:30;7.90;91.10
19561;DHT22;9927;47.792;10.616;2023-12-28T05:13:57;8.00;90.90
19561;DHT22;9927;47.792;10.616;2023-12-28T05:16:24;8.20;90.40
19561;DHT22;9927;47.792;10.616;2023-12-28T05:18:51;8.20;90.10
19561;DHT22;9927;47.792;10.616;2023-12-28T05:21:19;8.20;90.50
19561;DHT22;9927;47.792;10.616;2023-12-28T05:23:47;8.20;90.10
19561;DHT22;9927;47.792;10.616;2023-12-28T05:26:14;8.20;89.20
19561;DHT22;9927;47.792;10.616;2023-12-28T05:28:42;8.20;88.80
19561;DHT22;9927;47.792;10.616;2023-12-28T05:31:09;8.20;89.30
19561;DHT22;9927;47.792;10.616;2023-12-28T05:33:36;8.10;89.50
19561;DHT22;9927;47.792;10.616;2023-12-28T05:36:04;8.00;89.30
19561;DHT22;9927;47.792;10.616;2023-12-28T05:38:32;8.00;89.20
19561;DHT22;9927;47.792;10.616;2023-12-28T05:40:59;7.90;89.40
19561;DHT22;9927;47.792;10.616;2023-12-28T05:43:27;8.00;88.60
19561;DHT22;9927;47.792;10.616;2023-12-28T05:45:54;7.90;89.80
19561;DHT22;9927;47.792;10.616;2023-12-28T05:48:22;7.80;89.50
19561;DHT22;9927;47.792;10.616;2023-12-28T05:50:49;7.70;89.40
19561;DHT22;9927;47.792;10.616;2023-12-28T05:53:16;7.70;88.80
19561;DHT22;9927;47.792;10.616;2023-12-28T05:55:44;7.70;88.40
19561;DHT22;9927;47.792;10.616;2023-12-28T05:58:11;7.70;87.30
19561;DHT22;9927;47.792;10.616;2023-12-28T06:00:38;7.70;88.80
19561;DHT22;9927;47.792;10.616;2023-12-28T06:03:06;7.70;87.00
19561;DHT22;9927;47.792;10.616;2023-12-28T06:05:33;7.70;88.30
19561;DHT22;9927;47.792;10.616;2023-12-28T06:08:01;7.60;87.00
19561;DHT22;9927;47.792;10.616;2023-12-28T06:10:28;7.80;86.90
19561;DHT22;9927;47.792;10.616;2023-12-28T06:12:56;7.80;85.30
19561;DHT22;9927;47.792;10.616;2023-12-28T06:15:23;7.80;84.80
19561;DHT22;9927;47.792;10.616;2023-12-28T06:17:51;7.90;84.30
19561;DHT22;9927;47.792;10.616;2023-12-28T06:20:19;7.80;84.90
19561;DHT22;9927;47.792;10.616;2023-12-28T06:22:46;7.90;84.90
19561;DHT22;9927;47.792;10.616;2023-12-28T06:25:16;7.90;84.30
19561;DHT22;9927;47.792;10.616;2023-12-28T06:27:43;7.90;85.40
19561;DHT22;9927;47.792;10.616;2023-12-28T06:30:11;7.90;85.60
19561;DHT22;9927;47.792;10.616;2023-12-28T06:32:38;7.70;87.80
19561;DHT22;9927;47.792;10.616;2023-12-28T06:35:06;7.50;88.10
19561;DHT22;9927;47.792;10.616;2023-12-28T06:37:33;7.50;86.70
19561;DHT22;9927;47.792;10.616;2023-12-28T06:40:00;7.40;87.20
19561;DHT22;9927;47.792;10.616;2023-12-28T06:42:28;7.30;87.50
19561;DHT22;9927;47.792;10.616;2023-12-28T06:44:55;7.20;87.60
19561;DHT22;9927;47.792;10.616;2023-12-28T06:47:22;7.10;87.60
19561;DHT22;9927;47.792;10.616;2023-12-28T06:49:52;7.00;88.30
19561;DHT22;9927;47.792;10.616;2023-12-28T06:52:20;6.80;88.90
19561;DHT22;9927;47.792;10.616;2023-12-28T06:54:51;6.80;89.00
19561;DHT22;9927;47.792;10.616;2023-12-28T06:57:18;6.70;89.30
19561;DHT22;9927;47.792;10.616;2023-12-28T06:59:46;6.60;89.30
19561;DHT22;9927;47.792;10.616;2023-12-28T07:02:13;6.60;89.40
19561;DHT22;9927;47.792;10.616;2023-12-28T07:04:40;6.50;89.40
19561;DHT22;9927;47.792;10.616;2023-12-28T07:07:07;6.50;89.70
19561;DHT22;9927;47.792;10.616;2023-12-28T07:09:38;6.50;89.90
19561;DHT22;9927;47.792;10.616;2023-12-28T07:12:05;6.50;90.00
19561;DHT22;9927;47.792;10.616;2023-12-28T07:14:33;6.50;90.00
19561;DHT22;9927;47.792;10.616;2023-12-28T07:17:03;6.40;89.90
19561;DHT22;9927;47.792;10.616;2023-12-28T07:19:30;6.40;90.00
19561;DHT22;9927;47.792;10.616;2023-12-28T07:21:58;6.40;90.70
19561;DHT22;9927;47.792;10.616;2023-12-28T07:24:25;6.40;90.80
19561;DHT22;9927;47.792;10.616;2023-12-28T07:26:52;6.30;90.80
19561;DHT22;9927;47.792;10.616;2023-12-28T07:29:20;6.40;90.80
19561;DHT22;9927;47.792;10.616;2023-12-28T07:31:47;6.40;90.70
19561;DHT22;9927;47.792;10.616;2023-12-28T07:34:14;6.30;91.60
19561;DHT22;9927;47.792;10.616;2023-12-28T07:36:42;6.20;92.50
19561;DHT22;9927;47.792;10.616;2023-12-28T07:39:10;6.10;92.90
19561;DHT22;9927;47.792;10.616;2023-12-28T07:41:38;6.10;92.10
19561;DHT22;9927;47.792;10.616;2023-12-28T07:44:05;6.00;93.80
19561;DHT22;9927;47.792;10.616;2023-12-28T07:46:32;6.00;93.10
19561;DHT22;9927;47.792;10.616;2023-12-28T07:49:00;6.00;91.90
19561;DHT22;9927;47.792;10.616;2023-12-28T07:51:28;6.00;92.90
19561;DHT22;9927;47.792;10.616;2023-12-28T07:53:55;6.00;93.50
19561;DHT22;9927;47.792;10.616;2023-12-28T07:56:22;5.90;94.20
19561;DHT22;9927;47.792;10.616;2023-12-28T07:58:49;5.90;94.60
19561;DHT22;9927;47.792;10.616;2023-12-28T08:01:17;5.90;94.50
19561;DHT22;9927;47.792;10.616;2023-12-28T08:03:45;6.10;94.90
19561;DHT22;9927;47.792;10.616;2023-12-28T08:06:12;6.20;94.00
19561;DHT22;9927;47.792;10.616;2023-12-28T08:08:40;6.20;94.20
19561;DHT22;9927;47.792;10.616;2023-12-28T08:11:07;6.20;94.90
19561;DHT22;9927;47.792;10.616;2023-12-28T08:13:35;6.30;94.70
19561;DHT22;9927;47.792;10.616;2023-12-28T08:16:02;6.30;94.20
19561;DHT22;9927;47.792;10.616;2023-12-28T08:18:30;6.20;95.00
19561;DHT22;9927;47.792;10.616;2023-12-28T08:20:57;6.20;96.00
19561;DHT22;9927;47.792;10.616;2023-12-28T08:23:26;6.40;96.60
19561;DHT22;9927;47.792;10.616;2023-12-28T08:25:53;6.40;97.20
19561;DHT22;9927;47.792;10.616;2023-12-28T08:28:20;6.50;97.20
19561;DHT22;9927;47.792;10.616;2023-12-28T08:30:47;6.60;97.20
19561;DHT22;9927;47.792;10.616;2023-12-28T08:33:15;6.60;97.20
19561;DHT22;9927;47.792;10.616;2023-12-28T08:35:42;6.70;97.60
19561;DHT22;9927;47.792;10.616;2023-12-28T08:38:10;6.70;97.90
19561;DHT22;9927;47.792;10.616;2023-12-28T08:40:37;6.80;98.60
19561;DHT22;9927;47.792;10.616;2023-12-28T08:43:05;6.80;98.10
19561;DHT22;9927;47.792;10.616;2023-12-28T08:45:32;6.80;98.60
19561;DHT22;9927;47.792;10.616;2023-12-28T08:48:02;6.90;98.10
19561;DHT22;9927;47.792;10.616;2023-12-28T08:50:30;6.80;99.00
19561;DHT22;9927;47.792;10.616;2023-12-28T08:52:57;6.70;99.30
19561;DHT22;9927;47.792;10.616;2023-12-28T08:55:25;6.80;99.50
19561;DHT22;9927;47.792;10.616;2023-12-28T08:57:53;6.90;99.80
19561;DHT22;9927;47.792;10.616;2023-12-28T09:00:20;7.00;99.40
19561;DHT22;9927;47.792;10.616;2023-12-28T09:02:48;7.10;99.20
19561;DHT22;9927;47.792;10.616;2023-12-28T09:05:15;7.10;99.20
19561;DHT22;9927;47.792;10.616;2023-12-28T09:07:42;7.20;99.20
19561;DHT22;9927;47.792;10.616;2023-12-28T09:10:11;7.30;99.30
19561;DHT22;9927;47.792;10.616;2023-12-28T09:12:40;7.40;98.40
19561;DHT22;9927;47.792;10.616;2023-12-28T09:15:08;7.60;96.60
19561;DHT22;9927;47.792;10.616;2023-12-28T09:17:35;7.90;94.60
19561;DHT22;9927;47.792;10.616;2023-12-28T09:20:03;8.20;94.00
19561;DHT22;9927;47.792;10.616;2023-12-28T09:22:33;8.40;93.20
19561;DHT22;9927;47.792;10.616;2023-12-28T09:25:00;8.70;93.10
19561;DHT22;9927;47.792;10.616;2023-12-28T09:27:28;8.90;93.30
19561;DHT22;9927;47.792;10.616;2023-12-28T09:29:55;9.00;93.20
19561;DHT22;9927;47.792;10.616;2023-12-28T09:32:23;9.10;92.90
19561;DHT22;9927;47.792;10.616;2023-12-28T09:34:50;9.20;90.80
19561;DHT22;9927;47.792;10.616;2023-12-28T09:37:17;9.40;90.30
19561;DHT22;9927;47.792;10.616;2023-12-28T09:39:45;9.50;90.70
19561;DHT22;9927;47.792;10.616;2023-12-28T09:42:20;9.60;90.50
19561;DHT22;9927;47.792;10.616;2023-12-28T09:44:50;9.70;90.50
19561;DHT22;9927;47.792;10.616;2023-12-28T09:47:17;9.80;90.30
19561;DHT22;9927;47.792;10.616;2023-12-28T09:49:45;10.00;86.40
19561;DHT22;9927;47.792;10.616;2023-12-28T09:52:14;10.10;84.90
19561;DHT22;9927;47.792;10.616;2023-12-28T09:54:41;10.20;87.00
19561;DHT22;9927;47.792;10.616;2023-12-28T09:57:09;10.40;86.20
19561;DHT22;9927;47.792;10.616;2023-12-28T09:59:38;10.50;85.80
19561;DHT22;9927;47.792;10.616;2023-12-28T10:02:06;10.60;83.70
19561;DHT22;9927;47.792;10.616;2023-12-28T10:04:34;10.70;80.20
19561;DHT22;9927;47.792;10.616;2023-12-28T10:07:03;10.90;79.70
19561;DHT22;9927;47.792;10.616;2023-12-28T10:09:31;11.00;80.00
19561;DHT22;9927;47.792;10.616;2023-12-28T10:11:58;11.00;80.20
19561;DHT22;9927;47.792;10.616;2023-12-28T10:14:26;11.10;81.20
19561;DHT22;9927;47.792;10.616;2023-12-28T10:16:53;11.20;79.30
19561;DHT22;9927;47.792;10.616;2023-12-28T10:19:23;11.20;77.70
19561;DHT22;9927;47.792;10.616;2023-12-28T10:21:51;11.20;80.10
19561;DHT22;9927;47.792;10.616;2023-12-28T10:24:18;11.30;82.00
19561;DHT22;9927;47.792;10.616;2023-12-28T10:26:48;11.30;78.70
19561;DHT22;9927;47.792;10.616;2023-12-28T10:29:16;11.30;77.80
19561;DHT22;9927;47.792;10.616;2023-12-28T10:31:43;11.40;76.20
19561;DHT22;9927;47.792;10.616;2023-12-28T10:34:12;11.40;77.00
19561;DHT22;9927;47.792;10.616;2023-12-28T10:36:41;11.50;80.00
19561;DHT22;9927;47.792;10.616;2023-12-28T10:39:09;11.50;81.90
19561;DHT22;9927;47.792;10.616;2023-12-28T10:41:41;11.60;82.40
19561;DHT22;9927;47.792;10.616;2023-12-28T10:44:13;11.70;79.80
19561;DHT22;9927;47.792;10.616;2023-12-28T10:46:43;11.70;78.10
19561;DHT22;9927;47.792;10.616;2023-12-28T10:49:12;11.70;80.80
19561;DHT22;9927;47.792;10.616;2023-12-28T10:51:42;11.70;81.70
19561;DHT22;9927;47.792;10.616;2023-12-28T10:54:44;11.80;79.60
19561;DHT22;9927;47.792;10.616;2023-12-28T10:57:22;11.80;80.40
19561;DHT22;9927;47.792;10.616;2023-12-28T11:00:10;11.90;81.50
19561;DHT22;9927;47.792;10.616;2023-12-28T11:02:48;11.90;77.20
19561;DHT22;9927;47.792;10.616;2023-12-28T11:05:20;11.80;77.50
19561;DHT22;9927;47.792;10.616;2023-12-28T11:07:50;11.80;78.80
19561;DHT22;9927;47.792;10.616;2023-12-28T11:10:20;11.80;77.70
19561;DHT22;9927;47.792;10.616;2023-12-28T11:12:53;11.80;75.70
19561;DHT22;9927;47.792;10.616;2023-12-28T11:15:22;11.80;79.10
19561;DHT22;9927;47.792;10.616;2023-12-28T11:17:51;11.80;80.00
19561;DHT22;9927;47.792;10.616;2023-12-28T11:20:19;11.90;75.40
19561;DHT22;9927;47.792;10.616;2023-12-28T11:22:48;11.90;77.30
19561;DHT22;9927;47.792;10.616;2023-12-28T11:25:16;11.90;77.90
19561;DHT22;9927;47.792;10.616;2023-12-28T11:27:45;11.80;76.90
19561;DHT22;9927;47.792;10.616;2023-12-28T11:30:13;11.80;75.90
19561;DHT22;9927;47.792;10.616;2023-12-28T11:32:42;11.70;75.80
19561;DHT22;9927;47.792;10.616;2023-12-28T11:35:13;11.70;76.30
19561;DHT22;9927;47.792;10.616;2023-12-28T11:37:46;11.80;77.20
19561;DHT22;9927;47.792;10.616;2023-12-28T11:40:19;11.80;75.20
19561;DHT22;9927;47.792;10.616;2023-12-28T11:42:53;11.70;77.00
19561;DHT22;9927;47.792;10.616;2023-12-28T11:45:22;11.70;76.20
19561;DHT22;9927;47.792;10.616;2023-12-28T11:48:02;11.60;77.00
19561;DHT22;9927;47.792;10.616;2023-12-28T11:50:32;11.50;75.90
19561;DHT22;9927;47.792;10.616;2023-12-28T11:52:59;11.50;76.60
19561;DHT22;9927;47.792;10.616;2023-12-28T11:55:27;11.50;76.00
19561;DHT22;9927;47.792;10.616;2023-12-28T11:57:54;11.40;78.30
19561;DHT22;9927;47.792;10.616;2023-12-28T12:00:23;11.40;78.50
19561;DHT22;9927;47.792;10.616;2023-12-28T12:02:53;11.40;78.30
19561;DHT22;9927;47.792;10.616;2023-12-28T12:05:23;11.30;78.30
19561;DHT22;9927;47.792;10.616;2023-12-28T12:07:50;11.20;77.60
19561;DHT22;9927;47.792;10.616;2023-12-28T12:10:17;11.30;79.10
19561;DHT22;9927;47.792;10.616;2023-12-28T12:12:45;11.30;79.90
19561;DHT22;9927;47.792;10.616;2023-12-28T12:15:12;11.30;78.40
19561;DHT22;9927;47.792;10.616;2023-12-28T12:17:40;11.30;77.70
19561;DHT22;9927;47.792;10.616;2023-12-28T12:20:08;11.20;78.70
19561;DHT22;9927;47.792;10.616;2023-12-28T12:22:36;11.20;78.70
19561;DHT22;9927;47.792;10.616;2023-12-28T12:25:05;11.20;80.10
19561;DHT22;9927;47.792;10.616;2023-12-28T12:27:34;11.20;79.50
19561;DHT22;9927;47.792;10.616;2023-12-28T12:30:03;11.30;80.80
19561;DHT22;9927;47.792;10.616;2023-12-28T12:32:31;11.20;80.80
19561;DHT22;9927;47.792;10.616;2023-12-28T12:34:59;11.20;81.30
19561;DHT22;9927;47.792;10.616;2023-12-28T12:37:26;11.20;78.10
19561;DHT22;9927;47.792;10.616;2023-12-28T12:39:54;11.20;79.80
19561;DHT22;9927;47.792;10.616;2023-12-28T12:42:21;11.20;80.70
19561;DHT22;9927;47.792;10.616;2023-12-28T12:44:49;11.10;80.90
19561;DHT22;9927;47.792;10.616;2023-12-28T12:47:17;11.00;82.30
19561;DHT22;9927;47.792;10.616;2023-12-28T12:49:44;11.00;79.50
19561;DHT22;9927;47.792;10.616;2023-12-28T12:52:12;10.90;80.70
19561;DHT22;9927;47.792;10.616;2023-12-28T12:54:40;11.00;79.10
19561;DHT22;9927;47.792;10.616;2023-12-28T12:57:07;11.00;78.30
19561;DHT22;9927;47.792;10.616;2023-12-28T12:59:34;11.00;76.70
19561;DHT22;9927;47.792;10.616;2023-12-28T13:02:02;11.10;78.00
19561;DHT22;9927;47.792;10.616;2023-12-28T13:04:29;11.00;78.40
19561;DHT22;9927;47.792;10.616;2023-12-28T13:06:56;11.00;78.10
19561;DHT22;9927;47.792;10.616;2023-12-28T13:09:24;11.00;76.10
19561;DHT22;9927;47.792;10.616;2023-12-28T13:11:52;11.00;76.80
19561;DHT22;9927;47.792;10.616;2023-12-28T13:14:19;11.10;76.40
19561;DHT22;9927;47.792;10.616;2023-12-28T13:16:47;11.10;76.60
19561;DHT22;9927;47.792;10.616;2023-12-28T13:19:23;11.10;77.10
19561;DHT22;9927;47.792;10.616;2023-12-28T13:21:51;11.10;77.40
19561;DHT22;9927;47.792;10.616;2023-12-28T13:24:18;11.20;78.10
19561;DHT22;9927;47.792;10.616;2023-12-28T13:26:46;11.10;78.00
19561;DHT22;9927;47.792;10.616;2023-12-28T13:29:13;11.20;80.00
19561;DHT22;9927;47.792;10.616;2023-12-28T13:31:40;11.20;80.00
19561;DHT22;9927;47.792;10.616;2023-12-28T13:34:08;11.30;80.80
19561;DHT22;9927;47.792;10.616;2023-12-28T13:36:36;11.20;80.60
19561;DHT22;9927;47.792;10.616;2023-12-28T13:39:04;11.30;81.90
19561;DHT22;9927;47.792;10.616;2023-12-28T13:41:32;11.30;81.90
19561;DHT22;9927;47.792;10.616;2023-12-28T13:43:59;11.20;80.20
19561;DHT22;9927;47.792;10.616;2023-12-28T13:46:31;11.10;80.90
19561;DHT22;9927;47.792;10.616;2023-12-28T13:48:58;11.10;78.60
19561;DHT22;9927;47.792;10.616;2023-12-28T13:51:25;11.00;78.30
19561;DHT22;9927;47.792;10.616;2023-12-28T13:53:53;11.10;79.40
19561;DHT22;9927;47.792;10.616;2023-12-28T13:56:20;11.10;79.90
19561;DHT22;9927;47.792;10.616;2023-12-28T13:58:47;11.10;78.40
19561;DHT22;9927;47.792;10.616;2023-12-28T14:01:15;11.00;77.70
19561;DHT22;9927;47.792;10.616;2023-12-28T14:03:42;11.00;78.20
19561;DHT22;9927;47.792;10.616;2023-12-28T14:06:11;11.00;78.00
19561;DHT22;9927;47.792;10.616;2023-12-28T14:08:38;11.00;78.60
19561;DHT22;9927;47.792;10.616;2023-12-28T14:11:06;10.90;78.40
19561;DHT22;9927;47.792;10.616;2023-12-28T14:13:34;10.90;76.80
19561;DHT22;9927;47.792;10.616;2023-12-28T14:16:03;11.00;76.60
19561;DHT22;9927;47.792;10.616;2023-12-28T14:18:31;10.90;78.40
19561;DHT22;9927;47.792;10.616;2023-12-28T14:20:58;10.90;78.80
19561;DHT22;9927;47.792;10.616;2023-12-28T14:23:26;10.90;79.50
19561;DHT22;9927;47.792;10.616;2023-12-28T14:25:54;10.80;78.20
19561;DHT22;9927;47.792;10.616;2023-12-28T14:28:22;10.80;79.20
19561;DHT22;9927;47.792;10.616;2023-12-28T14:30:53;10.80;79.10
19561;DHT22;9927;47.792;10.616;2023-12-28T14:33:21;10.80;80.40
19561;DHT22;9927;47.792;10.616;2023-12-28T14:35:49;10.70;80.60
19561;DHT22;9927;47.792;10.616;2023-12-28T14:38:16;10.70;79.80
19561;DHT22;9927;47.792;10.616;2023-12-28T14:40:44;10.70;79.60
19561;DHT22;9927;47.792;10.616;2023-12-28T14:43:11;10.70;79.40
19561;DHT22;9927;47.792;10.616;2023-12-28T14:45:38;10.70;77.80
19561;DHT22;9927;47.792;10.616;2023-12-28T14:48:06;10.70;78.00
19561;DHT22;9927;47.792;10.616;2023-12-28T14:50:33;10.70;78.50
19561;DHT22;9927;47.792;10.616;2023-12-28T14:53:02;10.70;78.90
19561;DHT22;9927;47.792;10.616;2023-12-28T14:55:30;10.60;78.10
19561;DHT22;9927;47.792;10.616;2023-12-28T14:57:57;10.60;79.00
19561;DHT22;9927;47.792;10.616;2023-12-28T15:00:26;10.60;78.10
19561;DHT22;9927;47.792;10.616;2023-12-28T15:02:54;10.60;78.40
19561;DHT22;9927;47.792;10.616;2023-12-28T15:05:21;10.50;79.20
19561;DHT22;9927;47.792;10.616;2023-12-28T15:07:48;10.50;78.60
19561;DHT22;9927;47.792;10.616;2023-12-28T15:10:16;10.50;78.60
19561;DHT22;9927;47.792;10.616;2023-12-28T15:12:44;10.50;77.90
19561;DHT22;9927;47.792;10.616;2023-12-28T15:15:12;10.40;78.00
19561;DHT22;9927;47.792;10.616;2023-12-28T15:17:40;10.40;78.00
19561;DHT22;9927;47.792;10.616;2023-12-28T15:20:08;10.40;76.60
19561;DHT22;9927;47.792;10.616;2023-12-28T15:22:35;10.40;77.50
19561;DHT22;9927;47.792;10.616;2023-12-28T15:25:04;10.40;78.00
19561;DHT22;9927;47.792;10.616;2023-12-28T15:27:33;10.30;77.50
19561;DHT22;9927;47.792;10.616;2023-12-28T15:30:01;10.30;78.70
19561;DHT22;9927;47.792;10.616;2023-12-28T15:32:29;10.30;78.60
19561;DHT22;9927;47.792;10.616;2023-12-28T15:34:57;10.30;78.00
19561;DHT22;9927;47.792;10.616;2023-12-28T15:37:24;10.30;78.60
19561;DHT22;9927;47.792;10.616;2023-12-28T15:39:51;10.20;79.50
19561;DHT22;9927;47.792;10.616;2023-12-28T15:42:19;10.20;79.30
19561;DHT22;9927;47.792;10.616;2023-12-28T15:44:46;10.10;77.70
19561;DHT22;9927;47.792;10.616;2023-12-28T15:47:13;10.10;78.20
19561;DHT22;9927;47.792;10.616;2023-12-28T15:49:40;10.20;78.10
19561;DHT22;9927;47.792;10.616;2023-12-28T15:52:08;10.20;77.80
19561;DHT22;9927;47.792;10.616;2023-12-28T15:54:35;10.20;78.80
19561;DHT22;9927;47.792;10.616;2023-12-28T15:57:02;10.10;79.60
19561;DHT22;9927;47.792;10.616;2023-12-28T15:59:30;10.10;79.80
19561;DHT22;9927;47.792;10.616;2023-12-28T16:01:57;10.00;79.90
19561;DHT22;9927;47.792;10.616;2023-12-28T16:04:25;10.00;79.60
19561;DHT22;9927;47.792;10.616;2023-12-28T16:06:52;10.00;79.60
19561;DHT22;9927;47.792;10.616;2023-12-28T16:09:19;10.00;80.70
19561;DHT22;9927;47.792;10.616;2023-12-28T16:11:47;10.00;80.00
19561;DHT22;9927;47.792;10.616;2023-12-28T16:14:15;10.00;80.10
19561;DHT22;9927;47.792;10.616;2023-12-28T16:16:42;10.00;80.20
19561;DHT22;9927;47.792;10.616;2023-12-28T16:19:10;10.00;80.20
19561;DHT22;9927;47.792;10.616;2023-12-28T16:21:38;10.00;79.90
19561;DHT22;9927;47.792;10.616;2023-12-28T16:24:05;10.00;79.20
19561;DHT22;9927;47.792;10.616;2023-12-28T16:26:33;10.00;79.70
19561;DHT22;9927;47.792;10.616;2023-12-28T16:29:02;10.00;79.80
19561;DHT22;9927;47.792;10.616;2023-12-28T16:31:30;10.00;80.00
19561;DHT22;9927;47.792;10.616;2023-12-28T16:33:57;10.00;81.00
19561;DHT22;9927;47.792;10.616;2023-12-28T16:36:24;10.00;82.40
19561;DHT22;9927;47.792;10.616;2023-12-28T16:38:51;9.90;83.30
19561;DHT22;9927;47.792;10.616;2023-12-28T16:41:19;9.80;83.00
19561;DHT22;9927;47.792;10.616;2023-12-28T16:43:46;9.80;83.80
19561;DHT22;9927;47.792;10.616;2023-12-28T16:46:16;9.80;83.10
19561;DHT22;9927;47.792;10.616;2023-12-28T16:48:43;9.80;83.00
19561;DHT22;9927;47.792;10.616;2023-12-28T16:51:11;9.80;82.20
19561;DHT22;9927;47.792;10.616;2023-12-28T16:53:38;9.80;82.00
19561;DHT22;9927;47.792;10.616;2023-12-28T16:56:06;9.80;82.20
19561;DHT22;9927;47.792;10.616;2023-12-28T16:58:33;9.80;83.50
19561;DHT22;9927;47.792;10.616;2023-12-28T17:01:00;9.80;83.20
19561;DHT22;9927;47.792;10.616;2023-12-28T17:03:28;9.80;82.30
19561;DHT22;9927;47.792;10.616;2023-12-28T17:05:59;9.80;82.60
19561;DHT22;9927;47.792;10.616;2023-12-28T17:08:27;9.70;83.30
19561;DHT22;9927;47.792;10.616;2023-12-28T17:10:54;9.70;83.00
19561;DHT22;9927;47.792;10.616;2023-12-28T17:13:22;9.70;82.70
19561;DHT22;9927;47.792;10.616;2023-12-28T17:15:49;9.70;83.90
19561;DHT22;9927;47.792;10.616;2023-12-28T17:18:19;9.60;83.20
19561;DHT22;9927;47.792;10.616;2023-12-28T17:20:50;9.60;83.80
19561;DHT22;9927;47.792;10.616;2023-12-28T17:23:36;9.60;84.10
19561;DHT22;9927;47.792;10.616;2023-12-28T17:26:22;9.60;85.10
19561;DHT22;9927;47.792;10.616;2023-12-28T17:31:28;9.50;84.10
19561;DHT22;9927;47.792;10.616;2023-12-28T17:33:56;9.60;85.00
19561;DHT22;9927;47.792;10.616;2023-12-28T17:36:24;9.60;84.40
19561;DHT22;9927;47.792;10.616;2023-12-28T17:38:54;9.60;82.60
19561;DHT22;9927;47.792;10.616;2023-12-28T17:41:26;9.60;83.70
19561;DHT22;9927;47.792;10.616;2023-12-28T17:43:59;9.60;82.70
19561;DHT22;9927;47.792;10.616;2023-12-28T17:49:04;9.60;83.90
19561;DHT22;9927;47.792;10.616;2023-12-28T17:51:34;9.70;83.90
19561;DHT22;9927;47.792;10.616;2023-12-28T17:54:02;9.70;84.20
19561;DHT22;9927;47.792;10.616;2023-12-28T17:56:30;9.60;86.30
19561;DHT22;9927;47.792;10.616;2023-12-28T17:58:57;9.60;84.80
19561;DHT22;9927;47.792;10.616;2023-12-28T18:01:25;9.60;84.90
19561;DHT22;9927;47.792;10.616;2023-12-28T18:03:52;9.60;85.30
19561;DHT22;9927;47.792;10.616;2023-12-28T18:06:20;9.60;85.50
19561;DHT22;9927;47.792;10.616;2023-12-28T18:08:48;9.60;85.10
19561;DHT22;9927;47.792;10.616;2023-12-28T18:11:15;9.50;85.50
19561;DHT22;9927;47.792;10.616;2023-12-28T18:13:43;9.60;85.60
19561;DHT22;9927;47.792;10.616;2023-12-28T18:16:10;9.60;85.10
19561;DHT22;9927;47.792;10.616;2023-12-28T18:18:38;9.60;84.90
19561;DHT22;9927;47.792;10.616;2023-12-28T18:21:05;9.60;85.30
19561;DHT22;9927;47.792;10.616;2023-12-28T18:23:33;9.50;85.20
19561;DHT22;9927;47.792;10.616;2023-12-28T18:26:00;9.50;84.60
19561;DHT22;9927;47.792;10.616;2023-12-28T18:28:28;9.60;85.40
19561;DHT22;9927;47.792;10.616;2023-12-28T18:30:55;9.50;85.40
19561;DHT22;9927;47.792;10.616;2023-12-28T18:33:23;9.50;85.30
19561;DHT22;9927;47.792;10.616;2023-12-28T18:35:50;9.50;85.30
19561;DHT22;9927;47.792;10.616;2023-12-28T18:38:18;9.50;85.70
19561;DHT22;9927;47.792;10.616;2023-12-28T18:40:46;9.50;86.70
19561;DHT22;9927;47.792;10.616;2023-12-28T18:43:13;9.50;85.90
19561;DHT22;9927;47.792;10.616;2023-12-28T18:45:42;9.40;86.10
19561;DHT22;9927;47.792;10.616;2023-12-28T18:48:12;9.40;87.80
19561;DHT22;9927;47.792;10.616;2023-12-28T18:50:41;9.20;89.10
19561;DHT22;9927;47.792;10.616;2023-12-28T18:53:08;9.20;89.40
19561;DHT22;9927;47.792;10.616;2023-12-28T18:55:39;9.10;89.50
19561;DHT22;9927;47.792;10.616;2023-12-28T18:58:07;9.00;89.40
19561;DHT22;9927;47.792;10.616;2023-12-28T19:00:36;8.90;89.10
19561;DHT22;9927;47.792;10.616;2023-12-28T19:03:04;8.70;89.50
19561;DHT22;9927;47.792;10.616;2023-12-28T19:05:32;8.50;91.00
19561;DHT22;9927;47.792;10.616;2023-12-28T19:07:59;8.40;90.90
19561;DHT22;9927;47.792;10.616;2023-12-28T19:10:27;8.10;91.30
19561;DHT22;9927;47.792;10.616;2023-12-28T19:12:55;8.10;91.50
19561;DHT22;9927;47.792;10.616;2023-12-28T19:15:22;8.10;91.50
19561;DHT22;9927;47.792;10.616;2023-12-28T19:17:49;8.00;91.70
19561;DHT22;9927;47.792;10.616;2023-12-28T19:20:17;7.90;91.80
19561;DHT22;9927;47.792;10.616;2023-12-28T19:22:44;7.90;91.90
19561;DHT22;9927;47.792;10.616;2023-12-28T19:25:12;7.90;92.30
19561;DHT22;9927;47.792;10.616;2023-12-28T19:27:40;7.80;92.10
19561;DHT22;9927;47.792;10.616;2023-12-28T19:30:08;7.70;92.30
19561;DHT22;9927;47.792;10.616;2023-12-28T19:32:36;7.70;92.20
19561;DHT22;9927;47.792;10.616;2023-12-28T19:35:04;7.70;92.20
19561;DHT22;9927;47.792;10.616;2023-12-28T19:37:32;7.70;92.00
19561;DHT22;9927;47.792;10.616;2023-12-28T19:40:00;7.70;92.20
19561;DHT22;9927;47.792;10.616;2023-12-28T19:42:27;7.70;92.20
19561;DHT22;9927;47.792;10.616;2023-12-28T19:44:55;7.60;91.90
19561;DHT22;9927;47.792;10.616;2023-12-28T19:47:22;7.50;92.00
19561;DHT22;9927;47.792;10.616;2023-12-28T19:49:49;7.50;91.80
19561;DHT22;9927;47.792;10.616;2023-12-28T19:52:17;7.40;92.60